sensor_id;sensor_type;location;lat;lon;timestamp;P1;durP1;ratioP1;P2;durP2;ratioP2
9445;SDS011;4761;49.490;10.908;2023-02-02T00:01:27;4.37;;;1.60;;
9445;SDS011;4761;49.490;10.908;2023-02-02T00:03:53;2.53;;;1.53;;
9445;SDS011;4761;49.490;10.908;2023-02-02T00:06:20;3.47;;;1.50;;
9445;SDS011;4761;49.490;10.908;2023-02-02T00:08:47;3.20;;;1.40;;
9445;SDS011;4761;49.490;10.908;2023-02-02T00:11:13;3.00;;;1.30;;
9445;SDS011;4761;49.490;10.908;2023-02-02T00:13:39;3.77;;;1.53;;
9445;SDS011;4761;49.490;10.908;2023-02-02T00:16:32;2.40;;;1.20;;
9445;SDS011;4761;49.490;10.908;2023-02-02T00:19:15;2.27;;;1.30;;
9445;SDS011;4761;49.490;10.908;2023-02-02T00:21:47;2.87;;;1.57;;
9445;SDS011;4761;49.490;10.908;2023-02-02T00:24:15;3.00;;;1.60;;
9445;SDS011;4761;49.490;10.908;2023-02-02T00:26:45;3.53;;;1.50;;
9445;SDS011;4761;49.490;10.908;2023-02-02T00:29:17;2.37;;;1.40;;
9445;SDS011;4761;49.490;10.908;2023-02-02T00:31:47;2.90;;;1.37;;
9445;SDS011;4761;49.490;10.908;2023-02-02T00:34:14;3.00;;;1.73;;
9445;SDS011;4761;49.490;10.908;2023-02-02T00:36:40;2.33;;;1.20;;
9445;SDS011;4761;49.490;10.908;2023-02-02T00:39:07;2.70;;;1.40;;
9445;SDS011;4761;49.490;10.908;2023-02-02T00:41:34;2.40;;;1.17;;
9445;SDS011;4761;49.490;10.908;2023-02-02T00:43:59;2.80;;;1.23;;
9445;SDS011;4761;49.490;10.908;2023-02-02T00:46:43;3.60;;;1.10;;
9445;SDS011;4761;49.490;10.908;2023-02-02T00:49:09;2.97;;;1.57;;
9445;SDS011;4761;49.490;10.908;2023-02-02T00:51:35;2.37;;;1.40;;
9445;SDS011;4761;49.490;10.908;2023-02-02T00:54:01;4.17;;;1.50;;
9445;SDS011;4761;49.490;10.908;2023-02-02T00:56:28;2.10;;;1.10;;
9445;SDS011;4761;49.490;10.908;2023-02-02T00:58:53;3.47;;;1.57;;
9445;SDS011;4761;49.490;10.908;2023-02-02T01:01:19;2.90;;;1.57;;
9445;SDS011;4761;49.490;10.908;2023-02-02T01:03:46;2.90;;;1.37;;
9445;SDS011;4761;49.490;10.908;2023-02-02T01:06:12;2.80;;;1.37;;
9445;SDS011;4761;49.490;10.908;2023-02-02T01:08:38;4.40;;;1.67;;
9445;SDS011;4761;49.490;10.908;2023-02-02T01:11:04;1.77;;;1.20;;
9445;SDS011;4761;49.490;10.908;2023-02-02T01:13:30;2.47;;;1.13;;
9445;SDS011;4761;49.490;10.908;2023-02-02T01:15:56;2.00;;;1.10;;
9445;SDS011;4761;49.490;10.908;2023-02-02T01:18:23;1.47;;;1.07;;
9445;SDS011;4761;49.490;10.908;2023-02-02T01:20:56;2.43;;;1.40;;
9445;SDS011;4761;49.490;10.908;2023-02-02T01:23:29;1.90;;;1.20;;
9445;SDS011;4761;49.490;10.908;2023-02-02T01:25:55;2.73;;;1.50;;
9445;SDS011;4761;49.490;10.908;2023-02-02T01:28:23;2.87;;;1.30;;
9445;SDS011;4761;49.490;10.908;2023-02-02T01:30:49;2.33;;;1.10;;
9445;SDS011;4761;49.490;10.908;2023-02-02T01:33:15;3.97;;;1.33;;
9445;SDS011;4761;49.490;10.908;2023-02-02T01:35:45;2.80;;;1.27;;
9445;SDS011;4761;49.490;10.908;2023-02-02T01:38:12;1.67;;;1.10;;
9445;SDS011;4761;49.490;10.908;2023-02-02T01:40:44;2.53;;;1.17;;
9445;SDS011;4761;49.490;10.908;2023-02-02T01:43:25;2.43;;;1.27;;
9445;SDS011;4761;49.490;10.908;2023-02-02T01:45:52;2.83;;;1.17;;
9445;SDS011;4761;49.490;10.908;2023-02-02T01:48:20;1.87;;;1.00;;
9445;SDS011;4761;49.490;10.908;2023-02-02T01:50:52;2.60;;;1.40;;
9445;SDS011;4761;49.490;10.908;2023-02-02T01:53:21;2.00;;;1.00;;
9445;SDS011;4761;49.490;10.908;2023-02-02T01:55:47;2.33;;;0.90;;
9445;SDS011;4761;49.490;10.908;2023-02-02T01:58:16;1.30;;;0.83;;
9445;SDS011;4761;49.490;10.908;2023-02-02T02:00:43;2.10;;;0.90;;
9445;SDS011;4761;49.490;10.908;2023-02-02T02:03:10;2.63;;;1.20;;
9445;SDS011;4761;49.490;10.908;2023-02-02T02:05:43;1.33;;;0.80;;
9445;SDS011;4761;49.490;10.908;2023-02-02T02:08:22;1.83;;;0.90;;
9445;SDS011;4761;49.490;10.908;2023-02-02T02:10:50;1.33;;;1.00;;
9445;SDS011;4761;49.490;10.908;2023-02-02T02:13:16;1.27;;;0.80;;
9445;SDS011;4761;49.490;10.908;2023-02-02T02:15:46;1.60;;;0.93;;
9445;SDS011;4761;49.490;10.908;2023-02-02T02:18:40;1.37;;;0.80;;
9445;SDS011;4761;49.490;10.908;2023-02-02T02:21:36;1.33;;;0.90;;
9445;SDS011;4761;49.490;10.908;2023-02-02T02:30:40;1.27;;;0.70;;
9445;SDS011;4761;49.490;10.908;2023-02-02T02:33:26;1.20;;;0.63;;
9445;SDS011;4761;49.490;10.908;2023-02-02T02:36:39;0.70;;;0.50;;
9445;SDS011;4761;49.490;10.908;2023-02-02T02:39:37;0.70;;;0.60;;
9445;SDS011;4761;49.490;10.908;2023-02-02T02:42:20;0.83;;;0.57;;
9445;SDS011;4761;49.490;10.908;2023-02-02T02:44:48;0.50;;;0.50;;
9445;SDS011;4761;49.490;10.908;2023-02-02T02:47:15;1.07;;;0.70;;
9445;SDS011;4761;49.490;10.908;2023-02-02T02:49:43;1.67;;;0.90;;
9445;SDS011;4761;49.490;10.908;2023-02-02T02:52:11;1.53;;;0.73;;
9445;SDS011;4761;49.490;10.908;2023-02-02T02:54:39;0.80;;;0.70;;
9445;SDS011;4761;49.490;10.908;2023-02-02T02:59:36;1.30;;;0.70;;
9445;SDS011;4761;49.490;10.908;2023-02-02T03:02:27;1.03;;;0.70;;
9445;SDS011;4761;49.490;10.908;2023-02-02T03:07:47;0.40;;;0.40;;
9445;SDS011;4761;49.490;10.908;2023-02-02T03:10:19;0.53;;;0.50;;
9445;SDS011;4761;49.490;10.908;2023-02-02T03:12:49;0.80;;;0.60;;
9445;SDS011;4761;49.490;10.908;2023-02-02T03:15:16;1.13;;;0.70;;
9445;SDS011;4761;49.490;10.908;2023-02-02T03:17:42;0.70;;;0.60;;
9445;SDS011;4761;49.490;10.908;2023-02-02T03:20:10;0.60;;;0.60;;
9445;SDS011;4761;49.490;10.908;2023-02-02T03:22:36;0.50;;;0.40;;
9445;SDS011;4761;49.490;10.908;2023-02-02T03:25:02;0.80;;;0.40;;
9445;SDS011;4761;49.490;10.908;2023-02-02T03:27:28;0.50;;;0.50;;
9445;SDS011;4761;49.490;10.908;2023-02-02T03:29:53;0.60;;;0.57;;
9445;SDS011;4761;49.490;10.908;2023-02-02T03:32:19;0.80;;;0.50;;
9445;SDS011;4761;49.490;10.908;2023-02-02T03:34:45;0.60;;;0.47;;
9445;SDS011;4761;49.490;10.908;2023-02-02T03:37:10;0.40;;;0.40;;
9445;SDS011;4761;49.490;10.908;2023-02-02T03:39:36;0.50;;;0.50;;
9445;SDS011;4761;49.490;10.908;2023-02-02T03:42:01;0.50;;;0.47;;
9445;SDS011;4761;49.490;10.908;2023-02-02T03:44:27;0.70;;;0.60;;
9445;SDS011;4761;49.490;10.908;2023-02-02T03:46:53;0.60;;;0.43;;
9445;SDS011;4761;49.490;10.908;2023-02-02T03:49:18;0.40;;;0.40;;
9445;SDS011;4761;49.490;10.908;2023-02-02T03:51:44;0.40;;;0.40;;
9445;SDS011;4761;49.490;10.908;2023-02-02T03:54:10;0.50;;;0.40;;
9445;SDS011;4761;49.490;10.908;2023-02-02T03:56:35;0.47;;;0.47;;
9445;SDS011;4761;49.490;10.908;2023-02-02T03:59:01;0.43;;;0.40;;
9445;SDS011;4761;49.490;10.908;2023-02-02T04:01:27;0.57;;;0.40;;
9445;SDS011;4761;49.490;10.908;2023-02-02T04:03:54;0.50;;;0.50;;
9445;SDS011;4761;49.490;10.908;2023-02-02T04:06:20;0.53;;;0.50;;
9445;SDS011;4761;49.490;10.908;2023-02-02T04:08:46;0.53;;;0.40;;
9445;SDS011;4761;49.490;10.908;2023-02-02T04:11:12;0.60;;;0.50;;
9445;SDS011;4761;49.490;10.908;2023-02-02T04:13:37;0.50;;;0.50;;
9445;SDS011;4761;49.490;10.908;2023-02-02T04:16:04;0.40;;;0.40;;
9445;SDS011;4761;49.490;10.908;2023-02-02T04:18:29;0.40;;;0.40;;
9445;SDS011;4761;49.490;10.908;2023-02-02T04:20:56;0.40;;;0.40;;
9445;SDS011;4761;49.490;10.908;2023-02-02T04:23:22;0.30;;;0.30;;
9445;SDS011;4761;49.490;10.908;2023-02-02T04:25:49;0.40;;;0.40;;
9445;SDS011;4761;49.490;10.908;2023-02-02T04:28:15;0.37;;;0.37;;
9445;SDS011;4761;49.490;10.908;2023-02-02T04:30:40;0.40;;;0.40;;
9445;SDS011;4761;49.490;10.908;2023-02-02T04:33:06;0.50;;;0.40;;
9445;SDS011;4761;49.490;10.908;2023-02-02T04:35:31;0.50;;;0.50;;
9445;SDS011;4761;49.490;10.908;2023-02-02T04:37:57;0.40;;;0.40;;
9445;SDS011;4761;49.490;10.908;2023-02-02T04:40:22;0.63;;;0.40;;
9445;SDS011;4761;49.490;10.908;2023-02-02T04:42:48;0.40;;;0.40;;
9445;SDS011;4761;49.490;10.908;2023-02-02T04:45:13;0.80;;;0.50;;
9445;SDS011;4761;49.490;10.908;2023-02-02T04:47:39;0.40;;;0.33;;
9445;SDS011;4761;49.490;10.908;2023-02-02T04:50:05;0.40;;;0.40;;
9445;SDS011;4761;49.490;10.908;2023-02-02T04:52:31;0.50;;;0.40;;
9445;SDS011;4761;49.490;10.908;2023-02-02T04:54:56;0.50;;;0.50;;
9445;SDS011;4761;49.490;10.908;2023-02-02T04:57:22;0.87;;;0.50;;
9445;SDS011;4761;49.490;10.908;2023-02-02T04:59:47;0.87;;;0.50;;
9445;SDS011;4761;49.490;10.908;2023-02-02T05:02:13;0.47;;;0.40;;
9445;SDS011;4761;49.490;10.908;2023-02-02T05:04:38;0.40;;;0.40;;
9445;SDS011;4761;49.490;10.908;2023-02-02T05:07:04;0.60;;;0.40;;
9445;SDS011;4761;49.490;10.908;2023-02-02T05:09:30;0.63;;;0.43;;
9445;SDS011;4761;49.490;10.908;2023-02-02T05:11:55;0.50;;;0.50;;
9445;SDS011;4761;49.490;10.908;2023-02-02T05:14:21;0.30;;;0.30;;
9445;SDS011;4761;49.490;10.908;2023-02-02T05:16:46;0.40;;;0.40;;
9445;SDS011;4761;49.490;10.908;2023-02-02T05:19:14;0.40;;;0.40;;
9445;SDS011;4761;49.490;10.908;2023-02-02T05:21:41;0.40;;;0.40;;
9445;SDS011;4761;49.490;10.908;2023-02-02T05:24:10;0.70;;;0.50;;
9445;SDS011;4761;49.490;10.908;2023-02-02T05:26:36;1.07;;;0.60;;
9445;SDS011;4761;49.490;10.908;2023-02-02T05:29:01;0.50;;;0.50;;
9445;SDS011;4761;49.490;10.908;2023-02-02T05:31:27;0.40;;;0.40;;
9445;SDS011;4761;49.490;10.908;2023-02-02T05:33:55;0.53;;;0.50;;
9445;SDS011;4761;49.490;10.908;2023-02-02T05:36:20;0.60;;;0.50;;
9445;SDS011;4761;49.490;10.908;2023-02-02T05:38:46;0.50;;;0.50;;
9445;SDS011;4761;49.490;10.908;2023-02-02T05:41:11;0.40;;;0.40;;
9445;SDS011;4761;49.490;10.908;2023-02-02T05:43:37;0.40;;;0.40;;
9445;SDS011;4761;49.490;10.908;2023-02-02T05:46:02;0.57;;;0.53;;
9445;SDS011;4761;49.490;10.908;2023-02-02T05:48:28;0.73;;;0.50;;
9445;SDS011;4761;49.490;10.908;2023-02-02T05:50:56;0.73;;;0.60;;
9445;SDS011;4761;49.490;10.908;2023-02-02T05:53:38;0.73;;;0.53;;
9445;SDS011;4761;49.490;10.908;2023-02-02T05:56:04;0.67;;;0.53;;
9445;SDS011;4761;49.490;10.908;2023-02-02T05:58:29;0.47;;;0.47;;
9445;SDS011;4761;49.490;10.908;2023-02-02T06:00:55;0.60;;;0.60;;
9445;SDS011;4761;49.490;10.908;2023-02-02T06:03:20;0.73;;;0.63;;
9445;SDS011;4761;49.490;10.908;2023-02-02T06:05:46;0.70;;;0.70;;
9445;SDS011;4761;49.490;10.908;2023-02-02T06:08:12;0.70;;;0.60;;
9445;SDS011;4761;49.490;10.908;2023-02-02T06:10:38;0.90;;;0.60;;
9445;SDS011;4761;49.490;10.908;2023-02-02T06:13:05;0.50;;;0.50;;
9445;SDS011;4761;49.490;10.908;2023-02-02T06:15:31;1.43;;;0.60;;
9445;SDS011;4761;49.490;10.908;2023-02-02T06:17:57;0.70;;;0.60;;
9445;SDS011;4761;49.490;10.908;2023-02-02T06:20:22;1.03;;;0.60;;
9445;SDS011;4761;49.490;10.908;2023-02-02T06:22:48;0.50;;;0.50;;
9445;SDS011;4761;49.490;10.908;2023-02-02T06:25:14;0.50;;;0.50;;
9445;SDS011;4761;49.490;10.908;2023-02-02T06:27:39;0.70;;;0.50;;
9445;SDS011;4761;49.490;10.908;2023-02-02T06:30:05;0.60;;;0.50;;
9445;SDS011;4761;49.490;10.908;2023-02-02T06:32:31;0.40;;;0.40;;
9445;SDS011;4761;49.490;10.908;2023-02-02T06:34:56;0.70;;;0.60;;
9445;SDS011;4761;49.490;10.908;2023-02-02T06:37:22;0.57;;;0.57;;
9445;SDS011;4761;49.490;10.908;2023-02-02T06:39:48;0.40;;;0.40;;
9445;SDS011;4761;49.490;10.908;2023-02-02T06:42:13;0.50;;;0.50;;
9445;SDS011;4761;49.490;10.908;2023-02-02T06:44:38;0.40;;;0.40;;
9445;SDS011;4761;49.490;10.908;2023-02-02T06:47:04;0.40;;;0.40;;
9445;SDS011;4761;49.490;10.908;2023-02-02T06:49:29;0.40;;;0.40;;
9445;SDS011;4761;49.490;10.908;2023-02-02T06:51:55;0.60;;;0.50;;
9445;SDS011;4761;49.490;10.908;2023-02-02T06:54:20;0.50;;;0.50;;
9445;SDS011;4761;49.490;10.908;2023-02-02T06:56:46;0.67;;;0.50;;
9445;SDS011;4761;49.490;10.908;2023-02-02T06:59:11;0.47;;;0.47;;
9445;SDS011;4761;49.490;10.908;2023-02-02T07:01:37;0.47;;;0.47;;
9445;SDS011;4761;49.490;10.908;2023-02-02T07:04:03;0.50;;;0.40;;
9445;SDS011;4761;49.490;10.908;2023-02-02T07:06:28;0.60;;;0.60;;
9445;SDS011;4761;49.490;10.908;2023-02-02T07:08:54;0.40;;;0.40;;
9445;SDS011;4761;49.490;10.908;2023-02-02T07:11:19;0.70;;;0.60;;
9445;SDS011;4761;49.490;10.908;2023-02-02T07:13:46;0.40;;;0.40;;
9445;SDS011;4761;49.490;10.908;2023-02-02T07:16:13;0.40;;;0.40;;
9445;SDS011;4761;49.490;10.908;2023-02-02T07:18:40;0.70;;;0.43;;
9445;SDS011;4761;49.490;10.908;2023-02-02T07:21:30;0.67;;;0.40;;
9445;SDS011;4761;49.490;10.908;2023-02-02T07:23:59;1.03;;;0.47;;
9445;SDS011;4761;49.490;10.908;2023-02-02T07:26:26;0.40;;;0.40;;
9445;SDS011;4761;49.490;10.908;2023-02-02T07:28:53;0.50;;;0.40;;
9445;SDS011;4761;49.490;10.908;2023-02-02T07:31:19;0.30;;;0.30;;
9445;SDS011;4761;49.490;10.908;2023-02-02T07:33:47;0.40;;;0.40;;
9445;SDS011;4761;49.490;10.908;2023-02-02T07:36:15;0.70;;;0.50;;
9445;SDS011;4761;49.490;10.908;2023-02-02T07:38:42;0.73;;;0.43;;
9445;SDS011;4761;49.490;10.908;2023-02-02T07:41:09;0.40;;;0.40;;
9445;SDS011;4761;49.490;10.908;2023-02-02T07:43:35;0.60;;;0.50;;
9445;SDS011;4761;49.490;10.908;2023-02-02T07:46:01;1.30;;;0.50;;
9445;SDS011;4761;49.490;10.908;2023-02-02T07:48:29;0.40;;;0.40;;
9445;SDS011;4761;49.490;10.908;2023-02-02T07:51:01;0.40;;;0.40;;
9445;SDS011;4761;49.490;10.908;2023-02-02T07:53:27;0.47;;;0.40;;
9445;SDS011;4761;49.490;10.908;2023-02-02T07:56:03;0.60;;;0.50;;
9445;SDS011;4761;49.490;10.908;2023-02-02T07:58:30;1.70;;;0.50;;
9445;SDS011;4761;49.490;10.908;2023-02-02T08:00:59;0.43;;;0.40;;
9445;SDS011;4761;49.490;10.908;2023-02-02T08:03:28;0.40;;;0.40;;
9445;SDS011;4761;49.490;10.908;2023-02-02T08:05:54;0.80;;;0.70;;
9445;SDS011;4761;49.490;10.908;2023-02-02T08:08:20;0.50;;;0.50;;
9445;SDS011;4761;49.490;10.908;2023-02-02T08:10:47;0.80;;;0.80;;
9445;SDS011;4761;49.490;10.908;2023-02-02T08:13:12;0.87;;;0.83;;
9445;SDS011;4761;49.490;10.908;2023-02-02T08:15:38;1.00;;;0.80;;
9445;SDS011;4761;49.490;10.908;2023-02-02T08:18:03;0.87;;;0.70;;
9445;SDS011;4761;49.490;10.908;2023-02-02T08:20:29;0.63;;;0.60;;
9445;SDS011;4761;49.490;10.908;2023-02-02T08:22:55;0.70;;;0.70;;
9445;SDS011;4761;49.490;10.908;2023-02-02T08:25:20;0.77;;;0.77;;
9445;SDS011;4761;49.490;10.908;2023-02-02T08:27:46;1.93;;;1.20;;
9445;SDS011;4761;49.490;10.908;2023-02-02T08:30:11;1.27;;;1.10;;
9445;SDS011;4761;49.490;10.908;2023-02-02T08:32:37;1.47;;;1.20;;
9445;SDS011;4761;49.490;10.908;2023-02-02T08:35:04;1.93;;;1.50;;
9445;SDS011;4761;49.490;10.908;2023-02-02T08:37:30;1.50;;;1.40;;
9445;SDS011;4761;49.490;10.908;2023-02-02T08:39:55;1.27;;;1.17;;
9445;SDS011;4761;49.490;10.908;2023-02-02T08:42:21;1.43;;;1.30;;
9445;SDS011;4761;49.490;10.908;2023-02-02T08:44:46;1.27;;;1.17;;
9445;SDS011;4761;49.490;10.908;2023-02-02T08:47:12;1.60;;;1.30;;
9445;SDS011;4761;49.490;10.908;2023-02-02T08:49:37;1.90;;;1.37;;
9445;SDS011;4761;49.490;10.908;2023-02-02T08:52:03;1.83;;;1.50;;
9445;SDS011;4761;49.490;10.908;2023-02-02T08:54:28;1.13;;;1.03;;
9445;SDS011;4761;49.490;10.908;2023-02-02T08:56:55;1.30;;;1.20;;
9445;SDS011;4761;49.490;10.908;2023-02-02T08:59:21;1.57;;;1.40;;
9445;SDS011;4761;49.490;10.908;2023-02-02T09:01:46;1.53;;;1.43;;
9445;SDS011;4761;49.490;10.908;2023-02-02T09:04:13;1.10;;;1.00;;
9445;SDS011;4761;49.490;10.908;2023-02-02T09:06:42;1.50;;;1.40;;
9445;SDS011;4761;49.490;10.908;2023-02-02T09:09:09;1.50;;;1.40;;
9445;SDS011;4761;49.490;10.908;2023-02-02T09:11:38;1.50;;;1.40;;
9445;SDS011;4761;49.490;10.908;2023-02-02T09:14:04;1.40;;;1.30;;
9445;SDS011;4761;49.490;10.908;2023-02-02T09:16:30;1.40;;;1.30;;
9445;SDS011;4761;49.490;10.908;2023-02-02T09:18:56;1.60;;;1.40;;
9445;SDS011;4761;49.490;10.908;2023-02-02T09:21:22;1.77;;;1.40;;
9445;SDS011;4761;49.490;10.908;2023-02-02T09:23:48;1.50;;;1.40;;
9445;SDS011;4761;49.490;10.908;2023-02-02T09:26:19;1.77;;;1.67;;
9445;SDS011;4761;49.490;10.908;2023-02-02T09:28:53;8.13;;;1.60;;
9445;SDS011;4761;49.490;10.908;2023-02-02T09:31:25;7.63;;;2.07;;
9445;SDS011;4761;49.490;10.908;2023-02-02T09:33:51;6.27;;;1.60;;
9445;SDS011;4761;49.490;10.908;2023-02-02T09:36:20;6.03;;;1.93;;
9445;SDS011;4761;49.490;10.908;2023-02-02T09:38:48;6.43;;;1.47;;
9445;SDS011;4761;49.490;10.908;2023-02-02T09:43:43;5.57;;;1.80;;
9445;SDS011;4761;49.490;10.908;2023-02-02T09:49:06;3.47;;;1.40;;
9445;SDS011;4761;49.490;10.908;2023-02-02T09:51:38;3.43;;;1.97;;
9445;SDS011;4761;49.490;10.908;2023-02-02T09:56:41;3.00;;;1.90;;
9445;SDS011;4761;49.490;10.908;2023-02-02T09:59:11;4.43;;;1.73;;
9445;SDS011;4761;49.490;10.908;2023-02-02T10:01:44;4.87;;;1.87;;
9445;SDS011;4761;49.490;10.908;2023-02-02T10:04:15;2.97;;;1.77;;
9445;SDS011;4761;49.490;10.908;2023-02-02T10:06:55;3.17;;;1.70;;
9445;SDS011;4761;49.490;10.908;2023-02-02T10:12:20;4.40;;;1.93;;
9445;SDS011;4761;49.490;10.908;2023-02-02T10:23:07;2.27;;;1.70;;
9445;SDS011;4761;49.490;10.908;2023-02-02T10:26:03;6.03;;;2.00;;
9445;SDS011;4761;49.490;10.908;2023-02-02T10:34:15;2.73;;;1.80;;
9445;SDS011;4761;49.490;10.908;2023-02-02T10:36:45;2.77;;;1.67;;
9445;SDS011;4761;49.490;10.908;2023-02-02T10:44:57;2.63;;;1.50;;
9445;SDS011;4761;49.490;10.908;2023-02-02T10:47:28;2.37;;;1.60;;
9445;SDS011;4761;49.490;10.908;2023-02-02T10:52:50;2.57;;;1.53;;
9445;SDS011;4761;49.490;10.908;2023-02-02T10:55:41;2.33;;;1.37;;
9445;SDS011;4761;49.490;10.908;2023-02-02T11:03:12;2.70;;;1.63;;
9445;SDS011;4761;49.490;10.908;2023-02-02T11:05:40;1.83;;;1.40;;
9445;SDS011;4761;49.490;10.908;2023-02-02T11:08:30;2.67;;;1.60;;
9445;SDS011;4761;49.490;10.908;2023-02-02T11:10:57;2.10;;;1.30;;
9445;SDS011;4761;49.490;10.908;2023-02-02T11:13:32;2.67;;;1.53;;
9445;SDS011;4761;49.490;10.908;2023-02-02T11:16:16;3.23;;;1.33;;
9445;SDS011;4761;49.490;10.908;2023-02-02T11:18:43;3.90;;;1.43;;
9445;SDS011;4761;49.490;10.908;2023-02-02T11:21:26;2.67;;;1.60;;
9445;SDS011;4761;49.490;10.908;2023-02-02T11:24:04;2.53;;;1.40;;
9445;SDS011;4761;49.490;10.908;2023-02-02T11:26:46;3.17;;;1.50;;
9445;SDS011;4761;49.490;10.908;2023-02-02T11:29:17;2.47;;;1.50;;
9445;SDS011;4761;49.490;10.908;2023-02-02T11:31:56;5.73;;;2.00;;
9445;SDS011;4761;49.490;10.908;2023-02-02T11:34:24;2.23;;;1.60;;
9445;SDS011;4761;49.490;10.908;2023-02-02T11:36:58;2.20;;;1.70;;
9445;SDS011;4761;49.490;10.908;2023-02-02T11:39:25;3.87;;;1.63;;
9445;SDS011;4761;49.490;10.908;2023-02-02T11:41:59;2.50;;;1.70;;
9445;SDS011;4761;49.490;10.908;2023-02-02T11:44:35;3.90;;;2.00;;
9445;SDS011;4761;49.490;10.908;2023-02-02T11:47:04;5.80;;;2.63;;
9445;SDS011;4761;49.490;10.908;2023-02-02T11:49:31;3.67;;;2.10;;
9445;SDS011;4761;49.490;10.908;2023-02-02T11:52:03;3.03;;;1.83;;
9445;SDS011;4761;49.490;10.908;2023-02-02T11:54:32;2.87;;;1.73;;
9445;SDS011;4761;49.490;10.908;2023-02-02T11:57:06;3.30;;;1.80;;
9445;SDS011;4761;49.490;10.908;2023-02-02T12:04:40;3.20;;;2.00;;
9445;SDS011;4761;49.490;10.908;2023-02-02T12:09:49;4.60;;;1.97;;
9445;SDS011;4761;49.490;10.908;2023-02-02T12:15:18;4.10;;;2.57;;
9445;SDS011;4761;49.490;10.908;2023-02-02T12:18:20;5.43;;;3.07;;
9445;SDS011;4761;49.490;10.908;2023-02-02T12:21:05;6.27;;;3.53;;
9445;SDS011;4761;49.490;10.908;2023-02-02T12:23:42;5.67;;;3.40;;
9445;SDS011;4761;49.490;10.908;2023-02-02T12:31:41;14.93;;;4.20;;
9445;SDS011;4761;49.490;10.908;2023-02-02T12:37:07;20.60;;;3.60;;
9445;SDS011;4761;49.490;10.908;2023-02-02T12:40:32;9.90;;;3.20;;
9445;SDS011;4761;49.490;10.908;2023-02-02T12:45:58;6.03;;;3.40;;
9445;SDS011;4761;49.490;10.908;2023-02-02T12:51:12;16.53;;;3.43;;
9445;SDS011;4761;49.490;10.908;2023-02-02T12:54:12;5.20;;;2.63;;
9445;SDS011;4761;49.490;10.908;2023-02-02T12:56:48;6.67;;;2.63;;
9445;SDS011;4761;49.490;10.908;2023-02-02T13:07:29;5.03;;;2.50;;
9445;SDS011;4761;49.490;10.908;2023-02-02T13:13:08;4.80;;;2.20;;
9445;SDS011;4761;49.490;10.908;2023-02-02T13:15:48;7.23;;;2.50;;
9445;SDS011;4761;49.490;10.908;2023-02-02T13:18:25;3.00;;;2.07;;
9445;SDS011;4761;49.490;10.908;2023-02-02T13:20:57;5.37;;;2.13;;
9445;SDS011;4761;49.490;10.908;2023-02-02T13:23:59;4.30;;;1.83;;
9445;SDS011;4761;49.490;10.908;2023-02-02T13:26:22;5.37;;;1.90;;
9445;SDS011;4761;49.490;10.908;2023-02-02T13:29:02;4.23;;;1.90;;
9445;SDS011;4761;49.490;10.908;2023-02-02T13:31:56;3.47;;;1.60;;
9445;SDS011;4761;49.490;10.908;2023-02-02T13:39:55;2.60;;;1.63;;
9445;SDS011;4761;49.490;10.908;2023-02-02T13:42:45;2.70;;;1.70;;
9445;SDS011;4761;49.490;10.908;2023-02-02T13:50:57;4.07;;;1.67;;
9445;SDS011;4761;49.490;10.908;2023-02-02T13:53:56;3.17;;;1.50;;
9445;SDS011;4761;49.490;10.908;2023-02-02T14:05:06;5.10;;;1.80;;
9445;SDS011;4761;49.490;10.908;2023-02-02T14:07:42;5.40;;;1.83;;
9445;SDS011;4761;49.490;10.908;2023-02-02T14:10:19;6.33;;;2.43;;
9445;SDS011;4761;49.490;10.908;2023-02-02T14:13:05;4.40;;;2.33;;
9445;SDS011;4761;49.490;10.908;2023-02-02T14:15:53;3.70;;;2.10;;
9445;SDS011;4761;49.490;10.908;2023-02-02T14:21:56;5.63;;;2.70;;
9445;SDS011;4761;49.490;10.908;2023-02-02T14:26:47;4.67;;;2.37;;
9445;SDS011;4761;49.490;10.908;2023-02-02T14:34:52;6.67;;;2.33;;
9445;SDS011;4761;49.490;10.908;2023-02-02T14:47:48;9.43;;;2.63;;
9445;SDS011;4761;49.490;10.908;2023-02-02T14:50:21;10.03;;;2.10;;
9445;SDS011;4761;49.490;10.908;2023-02-02T15:03:56;7.27;;;2.40;;
9445;SDS011;4761;49.490;10.908;2023-02-02T15:06:45;6.63;;;1.90;;
9445;SDS011;4761;49.490;10.908;2023-02-02T15:22:56;6.87;;;2.03;;
9445;SDS011;4761;49.490;10.908;2023-02-02T15:25:44;4.63;;;1.50;;
9445;SDS011;4761;49.490;10.908;2023-02-02T15:28:37;4.60;;;1.80;;
9445;SDS011;4761;49.490;10.908;2023-02-02T15:34:02;6.70;;;1.80;;
9445;SDS011;4761;49.490;10.908;2023-02-02T15:36:36;3.50;;;1.30;;
9445;SDS011;4761;49.490;10.908;2023-02-02T15:39:21;3.67;;;1.20;;
9445;SDS011;4761;49.490;10.908;2023-02-02T15:41:54;3.10;;;1.33;;
9445;SDS011;4761;49.490;10.908;2023-02-02T15:44:40;5.47;;;1.50;;
9445;SDS011;4761;49.490;10.908;2023-02-02T15:47:14;2.60;;;1.13;;
9445;SDS011;4761;49.490;10.908;2023-02-02T15:49:41;2.47;;;1.17;;
9445;SDS011;4761;49.490;10.908;2023-02-02T15:52:14;2.40;;;1.50;;
9445;SDS011;4761;49.490;10.908;2023-02-02T15:54:49;2.87;;;1.20;;
9445;SDS011;4761;49.490;10.908;2023-02-02T15:57:28;3.10;;;1.10;;
9445;SDS011;4761;49.490;10.908;2023-02-02T15:59:55;3.00;;;1.20;;
9445;SDS011;4761;49.490;10.908;2023-02-02T16:02:25;6.50;;;1.40;;
9445;SDS011;4761;49.490;10.908;2023-02-02T16:05:21;1.20;;;0.90;;
9445;SDS011;4761;49.490;10.908;2023-02-02T16:07:53;2.57;;;1.13;;
9445;SDS011;4761;49.490;10.908;2023-02-02T16:10:20;1.87;;;1.07;;
9445;SDS011;4761;49.490;10.908;2023-02-02T16:12:46;1.90;;;1.00;;
9445;SDS011;4761;49.490;10.908;2023-02-02T16:15:19;1.20;;;1.00;;
9445;SDS011;4761;49.490;10.908;2023-02-02T16:17:57;2.33;;;1.13;;
9445;SDS011;4761;49.490;10.908;2023-02-02T16:20:24;2.47;;;1.10;;
9445;SDS011;4761;49.490;10.908;2023-02-02T16:22:51;2.07;;;1.20;;
9445;SDS011;4761;49.490;10.908;2023-02-02T16:25:20;1.30;;;0.87;;
9445;SDS011;4761;49.490;10.908;2023-02-02T16:27:47;1.90;;;1.10;;
9445;SDS011;4761;49.490;10.908;2023-02-02T16:30:36;2.20;;;1.10;;
9445;SDS011;4761;49.490;10.908;2023-02-02T16:35:53;1.43;;;0.90;;
9445;SDS011;4761;49.490;10.908;2023-02-02T16:38:24;1.67;;;0.93;;
9445;SDS011;4761;49.490;10.908;2023-02-02T16:41:09;1.77;;;1.00;;
9445;SDS011;4761;49.490;10.908;2023-02-02T16:43:37;2.10;;;1.10;;
9445;SDS011;4761;49.490;10.908;2023-02-02T16:46:08;1.70;;;1.10;;
9445;SDS011;4761;49.490;10.908;2023-02-02T16:53:46;1.43;;;0.80;;
9445;SDS011;4761;49.490;10.908;2023-02-02T16:56:25;1.55;;;0.95;;
9445;SDS011;4761;49.490;10.908;2023-02-02T16:58:54;1.20;;;0.90;;
9445;SDS011;4761;49.490;10.908;2023-02-02T17:01:21;1.10;;;0.83;;
9445;SDS011;4761;49.490;10.908;2023-02-02T17:03:56;1.20;;;1.00;;
9445;SDS011;4761;49.490;10.908;2023-02-02T17:06:30;2.83;;;0.90;;
9445;SDS011;4761;49.490;10.908;2023-02-02T17:09:12;1.87;;;0.80;;
9445;SDS011;4761;49.490;10.908;2023-02-02T17:11:39;1.50;;;1.00;;
9445;SDS011;4761;49.490;10.908;2023-02-02T17:14:23;2.40;;;1.00;;
9445;SDS011;4761;49.490;10.908;2023-02-02T17:16:52;1.07;;;0.90;;
9445;SDS011;4761;49.490;10.908;2023-02-02T17:19:18;0.90;;;0.80;;
9445;SDS011;4761;49.490;10.908;2023-02-02T17:21:43;1.50;;;0.90;;
9445;SDS011;4761;49.490;10.908;2023-02-02T17:24:13;1.00;;;0.90;;
9445;SDS011;4761;49.490;10.908;2023-02-02T17:26:39;1.40;;;1.07;;
9445;SDS011;4761;49.490;10.908;2023-02-02T17:29:05;1.50;;;1.00;;
9445;SDS011;4761;49.490;10.908;2023-02-02T17:31:32;1.20;;;1.10;;
9445;SDS011;4761;49.490;10.908;2023-02-02T17:33:57;1.60;;;1.10;;
9445;SDS011;4761;49.490;10.908;2023-02-02T17:36:23;1.00;;;0.90;;
9445;SDS011;4761;49.490;10.908;2023-02-02T17:38:48;1.33;;;1.10;;
9445;SDS011;4761;49.490;10.908;2023-02-02T17:41:14;3.47;;;1.10;;
9445;SDS011;4761;49.490;10.908;2023-02-02T17:43:39;1.60;;;1.20;;
9445;SDS011;4761;49.490;10.908;2023-02-02T17:46:07;2.07;;;1.10;;
9445;SDS011;4761;49.490;10.908;2023-02-02T17:48:35;1.13;;;1.03;;
9445;SDS011;4761;49.490;10.908;2023-02-02T17:51:01;2.17;;;1.23;;
9445;SDS011;4761;49.490;10.908;2023-02-02T17:53:30;1.43;;;1.20;;
9445;SDS011;4761;49.490;10.908;2023-02-02T17:55:56;1.63;;;1.37;;
9445;SDS011;4761;49.490;10.908;2023-02-02T17:58:22;1.20;;;1.10;;
9445;SDS011;4761;49.490;10.908;2023-02-02T18:00:51;1.53;;;1.27;;
9445;SDS011;4761;49.490;10.908;2023-02-02T18:03:21;1.10;;;1.00;;